createdAt,value
2018-07-25T00:00:32.487Z,0.00
2018-07-25T00:01:32.539Z,0.00
2018-07-25T00:02:32.471Z,0.00
2018-07-25T00:03:32.494Z,0.00
2018-07-25T00:04:32.451Z,0.00
2018-07-25T00:05:32.464Z,0.00
2018-07-25T00:06:32.457Z,0.00
2018-07-25T00:07:32.483Z,0.00
2018-07-25T00:08:32.500Z,0.00
2018-07-25T00:09:32.443Z,0.00
2018-07-25T00:10:32.434Z,0.00
2018-07-25T00:11:32.429Z,0.00
2018-07-25T00:12:32.425Z,0.00
2018-07-25T00:13:32.426Z,0.00
2018-07-25T00:14:32.459Z,0.00
2018-07-25T00:15:32.421Z,0.00
2018-07-25T00:16:32.420Z,0.00
2018-07-25T00:17:32.483Z,0.00
2018-07-25T00:18:32.391Z,0.00
2018-07-25T00:19:32.397Z,0.00
2018-07-25T00:20:32.398Z,0.00
2018-07-25T00:21:32.427Z,0.00
2018-07-25T00:22:32.385Z,0.00
2018-07-25T00:23:32.387Z,0.00
2018-07-25T00:24:32.390Z,0.00
2018-07-25T00:25:32.370Z,0.00
2018-07-25T00:26:32.379Z,0.00
2018-07-25T00:27:32.376Z,0.00
2018-07-25T00:28:32.394Z,0.00
2018-07-25T00:29:32.370Z,0.00
2018-07-25T00:30:32.357Z,0.00
2018-07-25T00:31:32.397Z,0.00
2018-07-25T00:32:32.346Z,0.00
2018-07-25T00:33:32.339Z,0.00
2018-07-25T00:34:32.348Z,0.00
2018-07-25T00:35:32.339Z,0.00
2018-07-25T00:36:32.368Z,0.00
2018-07-25T00:37:32.316Z,0.00
2018-07-25T00:38:32.310Z,0.00
2018-07-25T00:39:32.318Z,0.00
2018-07-25T00:40:32.369Z,0.00
2018-07-25T00:41:32.307Z,0.00
2018-07-25T00:42:32.303Z,0.00
2018-07-25T00:43:32.303Z,0.00
2018-07-25T00:44:32.289Z,0.00
2018-07-25T00:45:32.285Z,0.00
2018-07-25T00:46:32.324Z,0.00
2018-07-25T00:47:32.278Z,0.00
2018-07-25T00:48:32.267Z,0.00
2018-07-25T00:49:32.268Z,0.00
2018-07-25T00:50:32.274Z,0.00
2018-07-25T00:51:32.616Z,0.00
2018-07-25T00:52:32.267Z,0.00
2018-07-25T00:53:32.260Z,0.00
2018-07-25T00:54:32.248Z,0.00
2018-07-25T00:55:32.254Z,0.00
2018-07-25T00:56:32.231Z,0.00
2018-07-25T00:57:32.230Z,0.00
2018-07-25T00:58:32.235Z,0.00
2018-07-25T00:59:32.231Z,0.00
2018-07-25T01:00:32.220Z,0.00
2018-07-25T01:01:32.290Z,0.00
2018-07-25T01:02:32.224Z,0.00
2018-07-25T01:03:32.205Z,0.00
2018-07-25T01:04:32.212Z,0.00
2018-07-25T01:05:32.204Z,0.00
2018-07-25T01:06:32.190Z,0.00
2018-07-25T01:07:32.200Z,0.00
2018-07-25T01:08:32.193Z,0.00
2018-07-25T01:09:32.212Z,0.00
2018-07-25T01:10:32.164Z,0.00
2018-07-25T01:11:32.173Z,0.00
2018-07-25T01:12:32.194Z,0.00
2018-07-25T01:13:32.157Z,0.00
2018-07-25T01:14:32.189Z,0.00
2018-07-25T01:15:32.144Z,0.00
2018-07-25T01:16:32.133Z,0.00
2018-07-25T01:17:32.127Z,0.00
2018-07-25T01:18:32.122Z,0.00
2018-07-25T01:19:32.185Z,0.00
2018-07-25T01:20:32.114Z,0.00
2018-07-25T01:21:32.114Z,0.00
2018-07-25T01:22:32.112Z,0.00
2018-07-25T01:23:32.103Z,0.00
2018-07-25T01:24:32.103Z,0.00
2018-07-25T01:25:32.104Z,0.00
2018-07-25T01:26:32.080Z,0.00
2018-07-25T01:27:32.089Z,0.00
2018-07-25T01:28:32.081Z,0.00
2018-07-25T01:29:32.059Z,0.00
2018-07-25T01:30:32.067Z,0.00
2018-07-25T01:31:32.069Z,0.00
2018-07-25T01:32:32.071Z,0.00
2018-07-25T01:33:32.056Z,0.00
2018-07-25T01:34:32.065Z,0.00
2018-07-25T01:35:32.100Z,0.00
2018-07-25T01:36:32.037Z,0.00
2018-07-25T01:37:32.043Z,0.00
2018-07-25T01:38:32.037Z,0.00
2018-07-25T01:39:32.017Z,0.00
2018-07-25T01:40:32.030Z,0.00
2018-07-25T01:41:32.017Z,0.00
2018-07-25T01:42:32.037Z,0.00
2018-07-25T01:43:31.993Z,0.00
2018-07-25T01:44:32.011Z,0.00
2018-07-25T01:45:32.005Z,0.00
2018-07-25T01:46:31.984Z,0.00
2018-07-25T01:47:31.974Z,0.00
2018-07-25T01:48:31.971Z,0.00
2018-07-25T01:49:32.037Z,0.00
2018-07-25T01:50:31.972Z,0.00
2018-07-25T01:51:31.971Z,0.00
2018-07-25T01:52:31.958Z,0.00
2018-07-25T01:53:31.956Z,0.00
2018-07-25T01:54:31.958Z,0.00
2018-07-25T01:55:31.989Z,0.00
2018-07-25T01:56:31.938Z,0.00
2018-07-25T01:57:31.926Z,0.00
2018-07-25T01:58:31.994Z,0.00
2018-07-25T01:59:31.926Z,0.00
2018-07-25T02:00:31.910Z,0.00
2018-07-25T02:01:32.004Z,0.00
2018-07-25T02:02:31.896Z,0.00
2018-07-25T02:03:31.910Z,0.00
2018-07-25T02:04:31.934Z,0.00
2018-07-25T02:05:31.891Z,0.00
2018-07-25T02:06:31.920Z,0.00
2018-07-25T02:07:31.888Z,0.00
2018-07-25T02:08:31.883Z,0.00
2018-07-25T02:09:31.910Z,0.00
2018-07-25T02:10:31.872Z,0.00
2018-07-25T02:11:31.870Z,0.00
2018-07-25T02:12:31.861Z,0.00
2018-07-25T02:13:31.846Z,0.00
2018-07-25T02:14:31.877Z,0.00
2018-07-25T02:15:31.854Z,0.00
2018-07-25T02:16:31.848Z,0.00
2018-07-25T02:17:31.828Z,0.00
2018-07-25T02:18:31.873Z,0.00
2018-07-25T02:19:31.884Z,0.00
2018-07-25T02:20:31.818Z,0.00
2018-07-25T02:21:31.863Z,0.00
2018-07-25T02:22:31.815Z,0.00
2018-07-25T02:23:31.798Z,0.00
2018-07-25T02:24:31.791Z,0.00
2018-07-25T02:25:31.832Z,0.00
2018-07-25T02:26:31.794Z,0.00
2018-07-25T02:27:31.786Z,0.00
2018-07-25T02:28:31.780Z,0.00
2018-07-25T02:29:31.780Z,0.00
2018-07-25T02:30:31.827Z,0.00
2018-07-25T02:31:31.763Z,0.00
2018-07-25T02:32:31.745Z,0.00
2018-07-25T02:33:31.743Z,0.00
2018-07-25T02:34:31.748Z,0.00
2018-07-25T02:35:31.740Z,0.00
2018-07-25T02:36:31.752Z,0.00
2018-07-25T02:37:31.772Z,0.00
2018-07-25T02:38:31.723Z,0.00
2018-07-25T02:39:31.720Z,0.00
2018-07-25T02:40:31.717Z,0.00
2018-07-25T02:41:31.710Z,0.00
2018-07-25T02:42:31.820Z,0.00
2018-07-25T02:43:31.695Z,0.00
2018-07-25T02:44:31.691Z,0.00
2018-07-25T02:45:31.688Z,0.00
2018-07-25T02:46:31.683Z,0.00
2018-07-25T02:47:31.682Z,0.00
2018-07-25T02:48:31.703Z,0.00
2018-07-25T02:49:31.661Z,0.00
2018-07-25T02:50:31.694Z,0.00
2018-07-25T02:51:31.660Z,0.00
2018-07-25T02:52:31.640Z,0.00
2018-07-25T02:53:31.648Z,0.00
2018-07-25T02:54:31.640Z,0.00
2018-07-25T02:55:31.664Z,0.00
2018-07-25T02:56:31.626Z,0.00
2018-07-25T02:57:31.607Z,0.00
2018-07-25T02:58:31.620Z,0.00
2018-07-25T02:59:31.605Z,0.00
2018-07-25T03:00:31.665Z,0.00
2018-07-25T03:01:31.601Z,0.00
2018-07-25T03:02:31.590Z,0.00
2018-07-25T03:03:31.572Z,4.00
2018-07-25T03:04:31.576Z,0.00
2018-07-25T03:05:31.566Z,0.00
2018-07-25T03:06:31.577Z,0.00
2018-07-25T03:07:31.564Z,4.00
2018-07-25T03:08:31.543Z,4.00
2018-07-25T03:09:31.555Z,0.00
2018-07-25T03:10:31.537Z,4.00
2018-07-25T03:11:31.571Z,0.00
2018-07-25T03:12:31.536Z,4.00
2018-07-25T03:13:31.526Z,4.00
2018-07-25T03:14:31.524Z,4.00
2018-07-25T03:15:31.518Z,4.00
2018-07-25T03:16:31.513Z,4.00
2018-07-25T03:17:31.492Z,8.00
2018-07-25T03:18:31.507Z,8.00
2018-07-25T03:19:31.518Z,8.00
2018-07-25T03:20:31.477Z,8.00
2018-07-25T03:21:31.480Z,8.00
2018-07-25T03:22:31.465Z,8.00
2018-07-25T03:23:31.465Z,8.00
2018-07-25T03:24:31.503Z,12.00
2018-07-25T03:25:31.456Z,16.00
2018-07-25T03:26:31.459Z,12.00
2018-07-25T03:27:31.440Z,16.00
2018-07-25T03:28:31.440Z,20.00
2018-07-25T03:29:31.434Z,24.00
2018-07-25T03:30:31.438Z,24.00
2018-07-25T03:31:31.526Z,24.00
2018-07-25T03:32:31.422Z,24.00
2018-07-25T03:33:31.405Z,32.00
2018-07-25T03:34:31.471Z,32.00
2018-07-25T03:35:31.399Z,32.00
2018-07-25T03:36:31.391Z,36.00
2018-07-25T03:37:31.463Z,40.00
2018-07-25T03:38:31.376Z,40.00
2018-07-25T03:39:31.377Z,48.00
2018-07-25T03:40:31.390Z,48.00
2018-07-25T03:41:31.367Z,48.00
2018-07-25T03:42:31.360Z,56.00
2018-07-25T03:43:31.354Z,60.00
2018-07-25T03:44:31.347Z,64.00
2018-07-25T03:45:31.331Z,68.00
2018-07-25T03:46:31.409Z,72.00
2018-07-25T03:47:31.342Z,76.00
2018-07-25T03:48:31.318Z,80.00
2018-07-25T03:49:31.323Z,84.00
2018-07-25T03:50:31.311Z,88.00
2018-07-25T03:51:31.315Z,96.00
2018-07-25T03:52:31.378Z,100.00
2018-07-25T03:53:31.299Z,104.00
2018-07-25T03:54:31.292Z,108.00
2018-07-25T03:55:31.273Z,112.00
2018-07-25T03:56:31.280Z,116.00
2018-07-25T03:57:31.266Z,124.00
2018-07-25T03:58:31.280Z,128.00
2018-07-25T03:59:31.306Z,132.00
2018-07-25T04:00:31.244Z,140.00
2018-07-25T04:01:31.247Z,148.00
2018-07-25T04:02:31.303Z,152.00
2018-07-25T04:03:31.237Z,160.00
2018-07-25T04:04:31.229Z,168.00
2018-07-25T04:05:31.216Z,176.00
2018-07-25T04:06:31.235Z,184.00
2018-07-25T04:07:31.220Z,192.00
2018-07-25T04:08:31.204Z,196.00
2018-07-25T04:09:31.195Z,204.00
2018-07-25T04:10:31.206Z,208.00
2018-07-25T04:11:31.233Z,216.00
2018-07-25T04:12:31.208Z,224.00
2018-07-25T04:13:31.203Z,228.00
2018-07-25T04:14:31.173Z,236.00
2018-07-25T04:15:31.175Z,240.00
2018-07-25T04:16:31.171Z,252.00
2018-07-25T04:17:31.152Z,260.00
2018-07-25T04:18:31.148Z,268.00
2018-07-25T04:19:31.151Z,280.00
2018-07-25T04:20:31.137Z,280.00
2018-07-25T04:21:31.160Z,284.00
2018-07-25T04:22:31.129Z,288.00
2018-07-25T04:23:31.120Z,300.00
2018-07-25T04:24:31.121Z,312.00
2018-07-25T04:25:31.107Z,320.00
2018-07-25T04:26:31.100Z,320.00
2018-07-25T04:27:31.100Z,328.00
2018-07-25T04:28:31.112Z,340.00
2018-07-25T04:29:31.111Z,352.00
2018-07-25T04:30:31.083Z,368.00
2018-07-25T04:31:31.071Z,372.00
2018-07-25T04:32:31.073Z,372.00
2018-07-25T04:33:31.095Z,376.00
2018-07-25T04:34:31.060Z,380.00
2018-07-25T04:35:31.044Z,396.00
2018-07-25T04:36:31.050Z,404.00
2018-07-25T04:37:31.033Z,424.00
2018-07-25T04:38:31.063Z,440.00
2018-07-25T04:39:31.043Z,448.00
2018-07-25T04:40:31.007Z,440.00
2018-07-25T04:41:31.018Z,432.00
2018-07-25T04:42:31.015Z,428.00
2018-07-25T04:43:31.035Z,436.00
2018-07-25T04:44:31.002Z,452.00
2018-07-25T04:45:30.994Z,464.00
2018-07-25T04:46:30.995Z,480.00
2018-07-25T04:47:31.013Z,484.00
2018-07-25T04:48:30.998Z,480.00
2018-07-25T04:49:30.956Z,480.00
2018-07-25T04:50:30.962Z,500.00
2018-07-25T04:51:30.968Z,520.00
2018-07-25T04:52:30.947Z,532.00
2018-07-25T04:53:30.961Z,540.00
2018-07-25T04:54:30.947Z,544.00
2018-07-25T04:55:30.943Z,552.00
2018-07-25T04:56:30.931Z,572.00
2018-07-25T04:57:30.925Z,592.00
2018-07-25T04:58:30.987Z,604.00
2018-07-25T04:59:30.917Z,612.00
2018-07-25T05:00:30.904Z,616.00
2018-07-25T05:01:30.903Z,612.00
2018-07-25T05:02:30.901Z,616.00
2018-07-25T05:03:30.894Z,616.00
2018-07-25T05:04:30.907Z,612.00
2018-07-25T05:05:30.893Z,620.00
2018-07-25T05:06:30.942Z,632.00
2018-07-25T05:07:30.868Z,636.00
2018-07-25T05:08:30.851Z,644.00
2018-07-25T05:09:30.863Z,672.00
2018-07-25T05:10:30.843Z,688.00
2018-07-25T05:11:30.838Z,704.00
2018-07-25T05:12:30.927Z,688.00
2018-07-25T05:13:30.829Z,680.00
2018-07-25T05:14:30.828Z,676.00
2018-07-25T05:15:30.831Z,664.00
2018-07-25T05:16:30.830Z,668.00
2018-07-25T05:17:30.802Z,672.00
2018-07-25T05:18:30.839Z,688.00
2018-07-25T05:19:30.791Z,708.00
2018-07-25T05:20:30.796Z,712.00
2018-07-25T05:21:30.778Z,724.00
2018-07-25T05:22:30.789Z,732.00
2018-07-25T05:23:30.826Z,748.00
2018-07-25T05:24:30.771Z,756.00
2018-07-25T05:25:30.759Z,768.00
2018-07-25T05:26:30.763Z,792.00
2018-07-25T05:27:30.746Z,808.00
2018-07-25T05:28:30.772Z,816.00
2018-07-25T05:29:30.743Z,824.00
2018-07-25T05:30:30.735Z,832.00
2018-07-25T05:31:30.732Z,852.00
2018-07-25T05:32:30.717Z,884.00
2018-07-25T05:33:30.750Z,900.00
2018-07-25T05:34:30.725Z,920.00
2018-07-25T05:35:30.760Z,948.00
2018-07-25T05:36:30.699Z,968.00
2018-07-25T05:37:30.695Z,984.00
2018-07-25T05:38:30.723Z,996.00
2018-07-25T05:39:30.685Z,1004.00
2018-07-25T05:40:30.723Z,1016.00
2018-07-25T05:41:30.668Z,1048.00
2018-07-25T05:42:30.668Z,1084.00
2018-07-25T05:43:30.664Z,1092.00
2018-07-25T05:44:30.657Z,1080.00
2018-07-25T05:45:30.681Z,1060.00
2018-07-25T05:46:30.647Z,1064.00
2018-07-25T05:47:30.642Z,1080.00
2018-07-25T05:48:30.635Z,1100.00
2018-07-25T05:49:30.719Z,1120.00
2018-07-25T05:50:30.637Z,1180.00
2018-07-25T05:51:30.623Z,1196.00
2018-07-25T05:52:30.686Z,1200.00
2018-07-25T05:53:30.615Z,1212.00
2018-07-25T05:54:30.602Z,1220.00
2018-07-25T05:55:30.602Z,1228.00
2018-07-25T05:56:30.594Z,1196.00
2018-07-25T05:57:30.595Z,1208.00
2018-07-25T05:58:30.638Z,1204.00
2018-07-25T05:59:30.588Z,1196.00
2018-07-25T06:00:30.573Z,1208.00
2018-07-25T06:01:30.576Z,1224.00
2018-07-25T06:02:30.579Z,1228.00
2018-07-25T06:03:30.598Z,1204.00
2018-07-25T06:04:30.601Z,1204.00
2018-07-25T06:05:30.538Z,1216.00
2018-07-25T06:06:30.533Z,1240.00
2018-07-25T06:07:30.531Z,1260.00
2018-07-25T06:08:30.591Z,1296.00
2018-07-25T06:09:30.560Z,1364.00
2018-07-25T06:10:30.513Z,1444.00
2018-07-25T06:11:30.517Z,1512.00
2018-07-25T06:12:30.532Z,1596.00
2018-07-25T06:13:30.565Z,1672.00
2018-07-25T06:14:30.502Z,1692.00
2018-07-25T06:15:30.497Z,1700.00
2018-07-25T06:16:30.495Z,1668.00
2018-07-25T06:17:30.492Z,1664.00
2018-07-25T06:18:30.464Z,1768.00
2018-07-25T06:19:30.506Z,1800.00
2018-07-25T06:20:30.473Z,1808.00
2018-07-25T06:21:30.500Z,1768.00
2018-07-25T06:22:30.465Z,1676.00
2018-07-25T06:23:30.452Z,1544.00
2018-07-25T06:24:30.435Z,1404.00
2018-07-25T06:25:30.446Z,1256.00
2018-07-25T06:26:30.440Z,1160.00
2018-07-25T06:27:30.449Z,1100.00
2018-07-25T06:28:30.431Z,1076.00
2018-07-25T06:29:30.541Z,1080.00
2018-07-25T06:30:30.414Z,1096.00
2018-07-25T06:31:30.415Z,1124.00
2018-07-25T06:32:30.444Z,1168.00
2018-07-25T06:33:30.406Z,1204.00
2018-07-25T06:34:30.406Z,1216.00
2018-07-25T06:35:30.422Z,1216.00
2018-07-25T06:36:30.392Z,1248.00
2018-07-25T06:37:30.391Z,1248.00
2018-07-25T06:38:30.418Z,1268.00
2018-07-25T06:39:30.452Z,1288.00
2018-07-25T06:40:30.373Z,1312.00
2018-07-25T06:41:30.370Z,1332.00
2018-07-25T06:42:30.357Z,1352.00
2018-07-25T06:43:30.445Z,1368.00
2018-07-25T06:44:30.359Z,1388.00
2018-07-25T06:45:30.346Z,1392.00
2018-07-25T06:46:30.339Z,1408.00
2018-07-25T06:47:30.333Z,1444.00
2018-07-25T06:48:30.976Z,1468.00
2018-07-25T06:49:30.349Z,1452.00
2018-07-25T06:50:30.404Z,1452.00
2018-07-25T06:51:30.312Z,1452.00
2018-07-25T06:52:30.313Z,1456.00
2018-07-25T06:53:30.308Z,1464.00
2018-07-25T06:54:30.359Z,1476.00
2018-07-25T06:55:30.309Z,1468.00
2018-07-25T06:56:30.305Z,1460.00
2018-07-25T06:57:30.307Z,1480.00
2018-07-25T06:58:30.299Z,1496.00
2018-07-25T06:59:30.287Z,1492.00
2018-07-25T07:00:30.336Z,1512.00
2018-07-25T07:01:30.272Z,1540.00
2018-07-25T07:02:30.278Z,1560.00
2018-07-25T07:03:30.265Z,1568.00
2018-07-25T07:04:30.286Z,1572.00
2018-07-25T07:05:30.258Z,1572.00
2018-07-25T07:06:30.293Z,1592.00
2018-07-25T07:07:30.263Z,1632.00
2018-07-25T07:08:30.256Z,1648.00
2018-07-25T07:09:30.361Z,1648.00
2018-07-25T07:10:30.236Z,1636.00
2018-07-25T07:11:30.285Z,1656.00
2018-07-25T07:12:30.262Z,1680.00
2018-07-25T07:13:30.232Z,1640.00
2018-07-25T07:14:30.236Z,1652.00
2018-07-25T07:15:30.220Z,1656.00
2018-07-25T07:16:30.252Z,1668.00
2018-07-25T07:17:30.243Z,1696.00
2018-07-25T07:18:30.206Z,1756.00
2018-07-25T07:19:30.209Z,1820.00
2018-07-25T07:20:30.207Z,1856.00
2018-07-25T07:21:30.192Z,1856.00
2018-07-25T07:22:30.223Z,1868.00
2018-07-25T07:23:30.189Z,1872.00
2018-07-25T07:24:30.187Z,1868.00
2018-07-25T07:25:30.179Z,1864.00
2018-07-25T07:26:30.192Z,1884.00
2018-07-25T07:27:30.203Z,1928.00
2018-07-25T07:28:30.165Z,1968.00
2018-07-25T07:29:30.168Z,2016.00
2018-07-25T07:30:30.171Z,2072.00
2018-07-25T07:31:30.203Z,2120.00
2018-07-25T07:32:30.191Z,2168.00
2018-07-25T07:33:30.207Z,2196.00
2018-07-25T07:34:30.141Z,2212.00
2018-07-25T07:35:30.138Z,2184.00
2018-07-25T07:36:30.126Z,2168.00
2018-07-25T07:37:30.261Z,2160.00
2018-07-25T07:38:30.141Z,2128.00
2018-07-25T07:39:30.135Z,2228.00
2018-07-25T07:40:30.138Z,2252.00
2018-07-25T07:41:30.119Z,2220.00
2018-07-25T07:42:30.123Z,2148.00
2018-07-25T07:43:30.113Z,2064.00
2018-07-25T07:44:30.124Z,2040.00
2018-07-25T07:45:30.105Z,2048.00
2018-07-25T07:46:30.098Z,2068.00
2018-07-25T07:47:30.130Z,2080.00
2018-07-25T07:48:30.101Z,2100.00
2018-07-25T07:49:30.135Z,2108.00
2018-07-25T07:50:30.121Z,2108.00
2018-07-25T07:51:30.084Z,2128.00
2018-07-25T07:52:30.088Z,2156.00
2018-07-25T07:53:30.076Z,2184.00
2018-07-25T07:54:30.087Z,2208.00
2018-07-25T07:55:30.532Z,2240.00
2018-07-25T07:56:30.063Z,2264.00
2018-07-25T07:57:30.077Z,2336.00
2018-07-25T07:58:30.067Z,2364.00
2018-07-25T07:59:30.151Z,2400.00
2018-07-25T08:00:30.061Z,2424.00
2018-07-25T08:01:30.054Z,2428.00
2018-07-25T08:02:30.050Z,2416.00
2018-07-25T08:03:30.109Z,2408.00
2018-07-25T08:04:30.122Z,2436.00
2018-07-25T08:05:30.034Z,2448.00
2018-07-25T08:06:30.033Z,2504.00
2018-07-25T08:07:30.089Z,2576.00
2018-07-25T08:08:30.032Z,2672.00
2018-07-25T08:09:30.035Z,2692.00
2018-07-25T08:10:30.095Z,2568.00
2018-07-25T08:11:30.016Z,2508.00
2018-07-25T08:12:30.031Z,2488.00
2018-07-25T08:13:30.066Z,2536.00
2018-07-25T08:14:30.015Z,2492.00
2018-07-25T08:15:30.033Z,2940.00
2018-07-25T08:16:30.028Z,4072.00
2018-07-25T08:17:30.076Z,3820.00
2018-07-25T08:18:30.006Z,3140.00
2018-07-25T08:19:30.002Z,2628.00
2018-07-25T08:20:30.006Z,2424.00
2018-07-25T08:21:30.056Z,2384.00
2018-07-25T08:22:29.995Z,2436.00
2018-07-25T08:23:30.025Z,2660.00
2018-07-25T08:24:29.990Z,2564.00
2018-07-25T08:25:30.001Z,2564.00
2018-07-25T08:26:30.015Z,2640.00
2018-07-25T08:27:29.983Z,2764.00
2018-07-25T08:28:29.993Z,3116.00
2018-07-25T08:29:29.978Z,3216.00
2018-07-25T08:30:29.988Z,2840.00
2018-07-25T08:31:30.010Z,2848.00
2018-07-25T08:32:29.970Z,2884.00
2018-07-25T08:33:29.983Z,2956.00
2018-07-25T08:34:30.029Z,3036.00
2018-07-25T08:35:29.979Z,3124.00
2018-07-25T08:36:29.985Z,3136.00
2018-07-25T08:37:29.983Z,3272.00
2018-07-25T08:38:30.062Z,3568.00
2018-07-25T08:39:29.954Z,3512.00
2018-07-25T08:40:29.970Z,3244.00
2018-07-25T08:41:29.952Z,3280.00
2018-07-25T08:42:29.949Z,3376.00
2018-07-25T08:43:29.947Z,3508.00
2018-07-25T08:44:29.959Z,3532.00
2018-07-25T08:45:29.951Z,3640.00
2018-07-25T08:46:29.937Z,4496.00
2018-07-25T08:47:29.941Z,7180.00
2018-07-25T08:48:29.939Z,11168.00
2018-07-25T08:49:29.936Z,16384.00
2018-07-25T08:50:29.923Z,32576.00
2018-07-25T08:51:29.931Z,36992.00
2018-07-25T08:52:30.015Z,45184.00
2018-07-25T08:53:29.936Z,91008.00
2018-07-25T08:54:29.931Z,93344.00
2018-07-25T08:55:29.911Z,61632.00
2018-07-25T08:56:29.937Z,44672.00
2018-07-25T08:57:29.921Z,46976.00
2018-07-25T08:58:29.922Z,32288.00
2018-07-25T08:59:29.988Z,14848.00
2018-07-25T09:00:29.941Z,13440.00
2018-07-25T09:01:29.952Z,18208.00
2018-07-25T09:02:29.920Z,29472.00
2018-07-25T09:03:29.924Z,38112.00
2018-07-25T09:04:29.913Z,42400.00
2018-07-25T09:05:29.959Z,49408.00
2018-07-25T09:06:30.054Z,52160.00
2018-07-25T09:07:29.947Z,49824.00
2018-07-25T09:08:29.931Z,48736.00
2018-07-25T09:09:29.992Z,47232.00
2018-07-25T09:10:30.047Z,48640.00
2018-07-25T09:11:29.945Z,52736.00
2018-07-25T09:12:30.362Z,53824.00
2018-07-25T09:13:29.960Z,55040.00
2018-07-25T09:14:30.180Z,47360.00
2018-07-25T09:15:29.965Z,32384.00
2018-07-25T09:16:29.955Z,24576.00
2018-07-25T09:17:29.991Z,28032.00
2018-07-25T09:18:29.967Z,21472.00
2018-07-25T09:19:29.971Z,29344.00
2018-07-25T09:20:29.959Z,20384.00
2018-07-25T09:21:29.977Z,23744.00
2018-07-25T09:22:29.997Z,35904.00
2018-07-25T09:23:29.984Z,18592.00
2018-07-25T09:24:29.989Z,14204.00
2018-07-25T09:25:30.054Z,12984.00
2018-07-25T09:26:29.991Z,21312.00
2018-07-25T09:27:30.040Z,21728.00
2018-07-25T09:28:29.991Z,45024.00
2018-07-25T09:29:29.999Z,79552.00
2018-07-25T09:30:29.995Z,86432.00
2018-07-25T09:31:30.009Z,81696.00
2018-07-25T09:32:30.016Z,74176.00
2018-07-25T09:33:30.021Z,71712.00
2018-07-25T09:34:30.384Z,71168.00
2018-07-25T09:35:30.025Z,68896.00
2018-07-25T09:36:30.051Z,78720.00
2018-07-25T09:37:30.036Z,87552.00
2018-07-25T09:38:30.039Z,80672.00
2018-07-25T09:39:30.312Z,69440.00
2018-07-25T09:40:30.068Z,67456.00
2018-07-25T09:41:30.055Z,66688.00
2018-07-25T09:42:30.055Z,69152.00
2018-07-25T09:43:30.080Z,74784.00
2018-07-25T09:44:30.123Z,75328.00
2018-07-25T09:45:30.072Z,72736.00
2018-07-25T09:46:30.092Z,68224.00
2018-07-25T09:47:30.096Z,60768.00
2018-07-25T09:48:30.100Z,60160.00
2018-07-25T09:49:30.104Z,61024.00
2018-07-25T09:50:30.479Z,62080.00
2018-07-25T09:51:30.131Z,65504.00
2018-07-25T09:52:30.118Z,69248.00
2018-07-25T09:53:30.145Z,70144.00
2018-07-25T09:54:30.147Z,68704.00
2018-07-25T09:55:30.145Z,69600.00
2018-07-25T09:56:30.159Z,64768.00
2018-07-25T09:57:30.183Z,69696.00
2018-07-25T09:58:30.169Z,69024.00
2018-07-25T09:59:30.183Z,42048.00
2018-07-25T10:00:30.178Z,19744.00
2018-07-25T10:01:30.215Z,29600.00
2018-07-25T10:02:30.203Z,17792.00
2018-07-25T10:03:30.207Z,46592.00
2018-07-25T10:04:30.221Z,54240.00
2018-07-25T10:05:30.266Z,57248.00
2018-07-25T10:06:30.622Z,31328.00
2018-07-25T10:07:30.284Z,25568.00
2018-07-25T10:08:30.268Z,55232.00
2018-07-25T10:09:30.278Z,36704.00
2018-07-25T10:10:30.270Z,37792.00
2018-07-25T10:11:30.363Z,39936.00
2018-07-25T10:12:30.368Z,61056.00
2018-07-25T10:13:30.296Z,51808.00
2018-07-25T10:14:30.308Z,21568.00
2018-07-25T10:15:30.318Z,10920.00
2018-07-25T10:16:30.324Z,9124.00
2018-07-25T10:17:30.333Z,9064.00
2018-07-25T10:18:30.333Z,10028.00
2018-07-25T10:19:30.347Z,10252.00
2018-07-25T10:20:30.337Z,39424.00
2018-07-25T10:21:30.355Z,39744.00
2018-07-25T10:22:30.354Z,79968.00
2018-07-25T10:23:30.454Z,68928.00
2018-07-25T10:24:30.370Z,78720.00
2018-07-25T10:25:30.434Z,75520.00
2018-07-25T10:26:30.380Z,72032.00
2018-07-25T10:27:30.456Z,70976.00
2018-07-25T10:28:30.418Z,72416.00
2018-07-25T10:29:30.454Z,78336.00
2018-07-25T10:30:32.063Z,85632.00
2018-07-25T10:31:30.419Z,84672.00
2018-07-25T10:32:30.416Z,73472.00
2018-07-25T10:33:30.435Z,71680.00
2018-07-25T10:34:30.445Z,71200.00
2018-07-25T10:35:30.469Z,73152.00
2018-07-25T10:36:30.449Z,78784.00
2018-07-25T10:37:30.496Z,85920.00
2018-07-25T10:38:30.472Z,88288.00
2018-07-25T10:39:30.493Z,82048.00
2018-07-25T10:40:30.594Z,82784.00
2018-07-25T10:41:30.585Z,84608.00
2018-07-25T10:42:30.535Z,51232.00
2018-07-25T10:43:30.531Z,20512.00
2018-07-25T10:44:30.533Z,31104.00
2018-07-25T10:45:30.538Z,28032.00
2018-07-25T10:46:30.553Z,61344.00
2018-07-25T10:47:30.644Z,53568.00
2018-07-25T10:48:30.588Z,47424.00
2018-07-25T10:49:30.580Z,48224.00
2018-07-25T10:50:30.592Z,25376.00
2018-07-25T10:51:30.600Z,8148.00
2018-07-25T10:52:30.607Z,19392.00
2018-07-25T10:53:30.625Z,39008.00
2018-07-25T10:54:30.615Z,10956.00
2018-07-25T10:55:30.626Z,9768.00
2018-07-25T10:56:30.635Z,30528.00
2018-07-25T10:57:30.750Z,55552.00
2018-07-25T10:58:30.658Z,75296.00
2018-07-25T10:59:30.662Z,40064.00
2018-07-25T11:00:30.669Z,19936.00
2018-07-25T11:01:30.670Z,23136.00
2018-07-25T11:02:30.683Z,20672.00
2018-07-25T11:03:30.686Z,12236.00
2018-07-25T11:04:30.692Z,11544.00
2018-07-25T11:05:30.740Z,10444.00
2018-07-25T11:06:30.713Z,5472.00
2018-07-25T11:07:30.753Z,10064.00
2018-07-25T11:08:30.724Z,6316.00
2018-07-25T11:09:30.731Z,8604.00
2018-07-25T11:10:30.767Z,6932.00
2018-07-25T11:11:30.743Z,5012.00
2018-07-25T11:12:30.820Z,14464.00
2018-07-25T11:13:30.756Z,18976.00
2018-07-25T11:14:30.754Z,5548.00
2018-07-25T11:15:30.765Z,16640.00
2018-07-25T11:16:31.189Z,7324.00
2018-07-25T11:17:30.771Z,8144.00
2018-07-25T11:18:30.784Z,36832.00
2018-07-25T11:19:30.828Z,27904.00
2018-07-25T11:20:30.798Z,95808.00
2018-07-25T11:21:30.811Z,88704.00
2018-07-25T11:22:30.797Z,79584.00
2018-07-25T11:23:30.803Z,84000.00
2018-07-25T11:24:30.851Z,87296.00
2018-07-25T11:25:30.819Z,80352.00
2018-07-25T11:26:30.813Z,80000.00
2018-07-25T11:27:30.825Z,73920.00
2018-07-25T11:28:30.833Z,28704.00
2018-07-25T11:29:31.187Z,33920.00
2018-07-25T11:30:30.844Z,69856.00
2018-07-25T11:31:30.851Z,88320.00
2018-07-25T11:32:30.873Z,86720.00
2018-07-25T11:33:30.859Z,89888.00
2018-07-25T11:34:30.873Z,88640.00
2018-07-25T11:35:30.887Z,74432.00
2018-07-25T11:36:30.908Z,72352.00
2018-07-25T11:37:30.898Z,85472.00
2018-07-25T11:38:30.913Z,87296.00
2018-07-25T11:39:30.914Z,88544.00
2018-07-25T11:40:30.936Z,93504.00
2018-07-25T11:41:30.925Z,91456.00
2018-07-25T11:42:30.935Z,85088.00
2018-07-25T11:43:30.940Z,88960.00
2018-07-25T11:44:30.951Z,81600.00
2018-07-25T11:45:30.997Z,66784.00
2018-07-25T11:46:31.012Z,74016.00
2018-07-25T11:47:30.987Z,90816.00
2018-07-25T11:48:31.012Z,84704.00
2018-07-25T11:49:30.999Z,77024.00
2018-07-25T11:50:31.123Z,77952.00
2018-07-25T11:51:31.064Z,81696.00
2018-07-25T11:52:31.032Z,81376.00
2018-07-25T11:53:31.050Z,83040.00
2018-07-25T11:54:31.044Z,81728.00
2018-07-25T11:55:31.148Z,81120.00
2018-07-25T11:56:31.105Z,85728.00
2018-07-25T11:57:31.099Z,93440.00
2018-07-25T11:58:31.092Z,93504.00
2018-07-25T11:59:31.113Z,86368.00
2018-07-25T12:00:31.147Z,83200.00
2018-07-25T12:01:31.251Z,83584.00
2018-07-25T12:02:31.173Z,83328.00
2018-07-25T12:03:31.165Z,84704.00
2018-07-25T12:04:31.194Z,80192.00
2018-07-25T12:05:31.208Z,76960.00
2018-07-25T12:06:31.232Z,76544.00
2018-07-25T12:07:31.215Z,64864.00
2018-07-25T12:08:31.232Z,77152.00
2018-07-25T12:09:31.228Z,16736.00
2018-07-25T12:10:31.274Z,5788.00
2018-07-25T12:11:31.301Z,5380.00
2018-07-25T12:12:31.274Z,5072.00
2018-07-25T12:13:31.286Z,4952.00
2018-07-25T12:14:31.303Z,5008.00
2018-07-25T12:15:31.363Z,5108.00
2018-07-25T12:16:31.331Z,5196.00
2018-07-25T12:17:31.345Z,5144.00
2018-07-25T12:18:31.376Z,5340.00
2018-07-25T12:19:31.381Z,5184.00
2018-07-25T12:20:31.357Z,5204.00
2018-07-25T12:21:31.397Z,5520.00
2018-07-25T12:22:31.381Z,5424.00
2018-07-25T12:23:31.377Z,5396.00